Time;durP1;ratioP1;P1;durP2;ratioP2;P2;SDS_P1;SDS_P2;PMS_P1;PMS_P2;Temp;Humidity;BMP_temperature;BMP_pressure;BME280_temperature;BME280_humidity;BME280_pressure;Samples;Min_cycle;Max_cycle;Signal;HPM_P1;HPM_P2
2022/01/16 00:04:16;;;;;;;0.10;0.10;;;;;;;2.08;89.42;102472.44;5046408;28;20542;-71
2022/01/16 00:06:43;;;;;;;0.10;0.10;;;;;;;2.09;89.27;102463.91;5055977;28;20271;-71
2022/01/16 00:09:09;;;;;;;0.07;0.07;;;;;;;2.05;89.52;102468.81;5043100;28;20021;-71
2022/01/16 00:11:35;;;;;;;0.00;0.00;;;;;;;2.05;89.54;102458.47;5048940;28;20284;-72
2022/01/16 00:14:02;;;;;;;0.10;0.10;;;;;;;2.07;89.52;102474.13;5048344;28;20326;-71
2022/01/16 00:16:28;;;;;;;0.23;0.23;;;;;;;2.06;90.23;102472.31;5047663;28;20037;-71
2022/01/16 00:18:53;;;;;;;0.10;0.10;;;;;;;2.04;89.60;102466.06;5050109;28;20271;-71
2022/01/16 00:21:23;;;;;;;0.10;0.10;;;;;;;2.03;89.59;102462.59;5045376;28;20363;-71
2022/01/16 00:23:52;;;;;;;0.00;0.00;;;;;;;2.03;89.64;102459.09;5048188;28;20044;-70
2022/01/16 00:26:20;;;;;;;0.27;0.27;;;;;;;2.02;89.72;102449.53;5049006;28;20327;-71
2022/01/16 00:28:45;;;;;;;0.00;0.00;;;;;;;2.02;89.88;102450.47;5047361;28;20284;-71
2022/01/16 00:31:11;;;;;;;0.10;0.10;;;;;;;2.03;89.48;102448.75;5048539;28;20305;-71
2022/01/16 00:33:39;;;;;;;0.10;0.10;;;;;;;2.08;89.61;102462.09;5045178;28;20407;-71
2022/01/16 00:36:06;;;;;;;0.10;0.10;;;;;;;2.05;89.74;102454.97;5040898;28;20115;-71
2022/01/16 00:38:31;;;;;;;0.10;0.10;;;;;;;2.04;90.05;102450.56;5023667;28;20287;-71
2022/01/16 00:40:57;;;;;;;0.20;0.20;;;;;;;2.04;90.00;102448.91;5049005;28;20107;-70
2022/01/16 00:43:22;;;;;;;0.00;0.00;;;;;;;2.08;89.92;102454.34;5060603;28;20310;-71
2022/01/16 00:45:47;;;;;;;0.00;0.00;;;;;;;2.09;89.91;102454.47;5060598;28;20475;-70
2022/01/16 00:48:13;;;;;;;0.00;0.00;;;;;;;2.11;90.23;102458.09;5059883;28;20318;-71
2022/01/16 00:50:38;;;;;;;0.30;0.30;;;;;;;2.12;90.39;102470.25;5059569;28;20170;-71
2022/01/16 00:53:04;;;;;;;0.10;0.10;;;;;;;2.14;90.71;102448.06;5059757;28;20021;-71
2022/01/16 00:55:29;;;;;;;0.20;0.20;;;;;;;2.19;90.53;102423.50;5058981;28;20021;-71
2022/01/16 00:57:55;;;;;;;0.00;0.00;;;;;;;2.31;90.54;102434.00;5060189;28;20029;-72
2022/01/16 01:00:20;;;;;;;0.07;0.07;;;;;;;2.36;90.36;102420.59;5055380;28;20021;-71
2022/01/16 01:02:46;;;;;;;0.20;0.20;;;;;;;2.43;90.59;102397.97;5040562;28;20044;-71
2022/01/16 01:05:11;;;;;;;0.00;0.00;;;;;;;2.47;90.51;102401.72;5060198;28;20159;-71
2022/01/16 01:07:40;;;;;;;0.10;0.10;;;;;;;2.48;90.45;102400.94;5059474;28;20100;-71
2022/01/16 01:10:07;;;;;;;0.20;0.20;;;;;;;2.46;90.42;102420.59;5059014;28;20025;-71
2022/01/16 01:15:18;;;;;;;0.10;0.10;;;;;;;2.50;90.83;102442.47;5060294;28;20071;-72
2022/01/16 01:17:45;;;;;;;0.00;0.00;;;;;;;2.48;90.67;102431.97;5059597;28;20321;-71
2022/01/16 01:20:16;;;;;;;0.00;0.00;;;;;;;2.48;90.74;102434.56;5060106;28;20063;-72
2022/01/16 01:22:42;;;;;;;0.20;0.20;;;;;;;2.48;90.99;102429.41;5048598;28;20044;-72
2022/01/16 01:25:09;;;;;;;0.00;0.00;;;;;;;2.50;90.65;102427.88;5039561;28;20025;-71
2022/01/16 01:27:35;;;;;;;0.00;0.00;;;;;;;2.49;90.78;102417.38;5038343;28;20513;-71
2022/01/16 01:30:06;;;;;;;0.00;0.00;;;;;;;2.46;90.79;102416.34;5040203;28;20025;-71
2022/01/16 01:32:33;;;;;;;0.00;0.00;;;;;;;2.48;90.99;102439.75;5038017;28;20021;-71
2022/01/16 01:35:03;;;;;;;0.00;0.00;;;;;;;2.47;91.01;102428.50;5039978;28;20065;-72
2022/01/16 01:37:28;;;;;;;0.10;0.10;;;;;;;2.49;90.96;102438.97;5057343;28;20306;-71
2022/01/16 01:39:53;;;;;;;0.60;0.60;;;;;;;2.55;90.83;102408.47;5060301;28;20508;-71
2022/01/16 01:42:30;;;;;;;0.00;0.00;;;;;;;2.51;90.26;102380.53;5059737;28;20287;-70
2022/01/16 01:53:08;;;;;;;0.00;0.00;;;;;;;2.43;90.91;102361.78;5039059;28;20087;-71
2022/01/16 01:55:33;;;;;;;0.00;0.00;;;;;;;2.45;90.88;102392.94;5038070;28;20022;-71
2022/01/16 01:57:58;;;;;;;0.00;0.00;;;;;;;2.45;90.78;102411.03;5039598;28;20021;-71
2022/01/16 02:00:24;;;;;;;0.00;0.00;;;;;;;2.43;90.90;102417.78;5039485;28;20078;-71
2022/01/16 02:05:37;;;;;;;1.90;0.40;;;;;;;2.46;91.14;102433.53;5054550;28;20052;-72
2022/01/16 02:08:05;;;;;;;0.00;0.00;;;;;;;2.46;91.21;102443.88;5059177;28;20272;-72
2022/01/16 02:10:32;;;;;;;0.00;0.00;;;;;;;2.46;90.78;102446.47;5058472;28;20032;-71
2022/01/16 02:13:02;;;;;;;0.20;0.20;;;;;;;2.47;91.32;102453.44;5056982;28;20013;-73
2022/01/16 02:29:32;;;;;;;0.10;0.10;;;;;;;2.37;90.65;102438.81;5058508;28;20278;-71
2022/01/16 02:31:45;;;;;;;0.43;0.43;;;;;;;2.37;90.84;102443.09;5057398;28;20048;-71
2022/01/16 02:36:59;;;;;;;0.10;0.10;;;;;;;2.31;90.84;102440.88;5049272;28;20063;-72
2022/01/16 02:39:26;;;;;;;0.10;0.10;;;;;;;2.30;90.71;102445.13;5038310;28;20033;-71
2022/01/16 02:41:53;;;;;;;0.10;0.10;;;;;;;2.28;90.43;102449.25;5046118;28;20030;-71
2022/01/16 02:46:46;;;;;;;0.10;0.10;;;;;;;2.26;90.52;102435.31;5038471;28;20033;-72
2022/01/16 02:49:44;;;;;;;0.00;0.00;;;;;;;2.21;90.83;102428.81;5038036;28;20369;-72
2022/01/16 02:52:17;;;;;;;0.00;0.00;;;;;;;2.16;90.64;102425.81;5041842;28;20037;-72
2022/01/16 02:54:45;;;;;;;0.00;0.00;;;;;;;2.13;90.94;102416.88;5044109;28;20295;-71
2022/01/16 02:57:12;;;;;;;0.27;0.27;;;;;;;2.10;90.81;102419.22;5057835;28;20028;-71
2022/01/16 02:59:38;;;;;;;0.00;0.00;;;;;;;2.08;90.76;102418.16;5057672;28;20032;-70
2022/01/16 03:02:07;;;;;;;0.00;0.00;;;;;;;2.06;90.94;102406.00;5057148;28;20283;-71
2022/01/16 03:04:33;;;;;;;0.00;0.00;;;;;;;2.06;90.93;102408.59;5056542;28;20275;-71
2022/01/16 03:07:00;;;;;;;0.00;0.00;;;;;;;2.03;90.76;102400.59;5057854;28;20690;-71
2022/01/16 03:09:31;;;;;;;0.00;0.00;;;;;;;2.04;90.68;102396.31;5056706;28;20406;-71
2022/01/16 03:11:56;;;;;;;0.00;0.00;;;;;;;2.02;90.80;102396.19;5037617;28;20272;-71
2022/01/16 03:14:22;;;;;;;0.00;0.00;;;;;;;1.99;90.78;102393.31;5037639;28;20291;-71
2022/01/16 03:16:51;;;;;;;0.20;0.20;;;;;;;2.01;90.73;102380.53;5036720;28;20033;-72
2022/01/16 03:22:04;;;;;;;0.03;0.03;;;;;;;2.03;90.78;102364.41;5037260;28;20395;-71
2022/01/16 03:24:33;;;;;;;0.20;0.20;;;;;;;1.99;90.88;102375.22;5046666;28;20488;-71
2022/01/16 03:27:05;;;;;;;0.07;0.07;;;;;;;2.00;90.65;102370.97;5057118;28;20282;-71
2022/01/16 03:29:30;;;;;;;0.00;0.00;;;;;;;1.97;90.50;102376.78;5057020;28;20382;-72
2022/01/16 03:31:56;;;;;;;0.00;0.00;;;;;;;1.99;90.64;102372.66;5056907;28;20755;-72
2022/01/16 03:34:22;;;;;;;0.00;0.00;;;;;;;2.01;90.73;102372.78;5056778;28;20040;-71
2022/01/16 03:36:48;;;;;;;0.00;0.00;;;;;;;1.99;90.89;102362.31;5056338;28;20279;-71
2022/01/16 03:39:14;;;;;;;0.00;0.00;;;;;;;1.97;90.76;102362.94;5040180;28;20038;-72
2022/01/16 03:41:39;;;;;;;0.00;0.00;;;;;;;1.96;90.79;102364.63;5036716;28;20033;-69
2022/01/16 03:44:05;;;;;;;0.00;0.00;;;;;;;1.96;90.42;102356.88;5039183;28;20338;-70
2022/01/16 03:46:36;;;;;;;0.00;0.00;;;;;;;1.94;90.70;102358.44;5039925;28;20039;-70
2022/01/16 03:49:11;;;;;;;0.10;0.10;;;;;;;1.96;90.79;102358.53;5041729;28;20344;-71
2022/01/16 03:51:37;;;;;;;0.10;0.10;;;;;;;1.97;90.74;102350.94;5044382;28;20330;-71
2022/01/16 03:54:04;;;;;;;0.00;0.00;;;;;;;1.95;90.67;102362.81;5059966;28;20593;-72
2022/01/16 03:56:29;;;;;;;0.00;0.00;;;;;;;1.97;90.87;102358.69;5060433;28;20275;-72
2022/01/16 03:58:55;;;;;;;0.20;0.20;;;;;;;1.97;90.83;102356.09;5060942;28;20672;-72
2022/01/16 04:01:20;;;;;;;0.00;0.00;;;;;;;1.94;90.74;102370.44;5044736;28;20139;-71
2022/01/16 04:03:46;;;;;;;0.10;0.10;;;;;;;1.92;90.74;102363.47;5059872;28;20312;-70
2022/01/16 04:06:11;;;;;;;0.00;0.00;;;;;;;1.90;90.91;102359.84;5060611;28;20044;-71
2022/01/16 04:08:37;;;;;;;0.00;0.00;;;;;;;1.89;90.59;102358.03;5060465;28;20027;-70
2022/01/16 04:11:02;;;;;;;0.10;0.10;;;;;;;1.89;90.82;102360.63;5059783;28;20047;-71
2022/01/16 04:13:30;;;;;;;0.00;0.00;;;;;;;1.86;90.35;102354.28;5060247;28;20028;-70
2022/01/16 04:15:56;;;;;;;0.00;0.00;;;;;;;1.88;90.53;102360.47;5057965;28;20020;-71
2022/01/16 04:18:21;;;;;;;0.10;0.10;;;;;;;1.88;91.07;102347.56;5060360;28;20039;-71
2022/01/16 04:20:46;;;;;;;0.00;0.00;;;;;;;1.89;90.77;102357.09;5059588;28;20415;-72
2022/01/16 04:23:12;;;;;;;0.00;0.00;;;;;;;1.89;90.88;102351.94;5060100;28;20155;-72
2022/01/16 04:25:37;;;;;;;0.00;0.00;;;;;;;1.90;90.98;102367.59;5059798;28;20282;-71
2022/01/16 04:28:04;;;;;;;0.10;0.10;;;;;;;1.90;90.93;102354.69;5060165;28;20032;-71
2022/01/16 04:30:29;;;;;;;0.00;0.00;;;;;;;1.96;91.14;102358.53;5043430;28;20120;-71
2022/01/16 04:32:55;;;;;;;0.00;0.00;;;;;;;2.04;91.18;102355.88;5039726;28;20371;-71
2022/01/16 04:35:20;;;;;;;0.10;0.10;;;;;;;2.08;90.95;102366.47;5039666;28;20025;-72
2022/01/16 04:37:46;;;;;;;0.00;0.00;;;;;;;2.09;91.03;102363.09;5039807;28;20041;-72
2022/01/16 04:40:12;;;;;;;0.00;0.00;;;;;;;2.13;91.12;102355.75;5039875;28;20655;-71
2022/01/16 04:45:22;;;;;;;0.00;0.00;;;;;;;2.12;91.02;102346.19;5041460;28;20306;-71
2022/01/16 04:47:50;;;;;;;0.10;0.10;;;;;;;2.13;91.03;102342.81;5037281;28;20316;-71
2022/01/16 04:50:16;;;;;;;0.10;0.10;;;;;;;2.13;90.83;102339.34;5039974;28;20109;-71
2022/01/16 04:52:42;;;;;;;0.10;0.10;;;;;;;2.12;90.98;102346.19;5039121;28;20306;-71
2022/01/16 04:55:08;;;;;;;0.00;0.00;;;;;;;2.11;90.97;102339.22;5039460;28;20376;-71
2022/01/16 04:57:35;;;;;;;0.00;0.00;;;;;;;2.10;90.94;102344.28;5039187;28;20543;-71
2022/01/16 05:00:01;;;;;;;0.23;0.20;;;;;;;2.09;90.98;102348.53;5039863;28;20563;-71
2022/01/16 05:02:26;;;;;;;0.00;0.00;;;;;;;2.08;91.00;102344.13;5040318;28;20029;-72
2022/01/16 05:04:52;;;;;;;0.00;0.00;;;;;;;2.09;91.28;102339.84;5039855;28;20033;-70
2022/01/16 05:07:17;;;;;;;0.00;0.00;;;;;;;2.09;90.98;102348.53;5059336;28;20068;-70
2022/01/16 05:09:42;;;;;;;0.10;0.10;;;;;;;2.10;91.16;102336.50;5059371;28;20063;-72
2022/01/16 05:12:12;;;;;;;0.07;0.07;;;;;;;2.12;91.15;102353.06;5058188;28;20124;-71
2022/01/16 05:17:22;;;;;;;0.10;0.10;;;;;;;2.16;91.27;102348.28;5058250;28;20298;-73
2022/01/16 05:19:47;;;;;;;0.00;0.00;;;;;;;2.20;91.20;102344.28;5058116;28;20052;-71
2022/01/16 05:22:13;;;;;;;0.00;0.00;;;;;;;2.22;91.16;102347.91;5058110;28;20310;-71
2022/01/16 05:24:38;;;;;;;0.00;0.00;;;;;;;2.25;91.30;102347.25;5058214;28;20327;-71
2022/01/16 05:27:05;;;;;;;0.00;0.00;;;;;;;2.31;91.14;102340.94;5059052;28;20029;-71
2022/01/16 05:29:30;;;;;;;0.00;0.00;;;;;;;2.35;91.39;102333.47;5059062;28;20029;-71
2022/01/16 05:31:56;;;;;;;0.00;0.00;;;;;;;2.42;91.48;102334.09;5054807;28;20032;-70
2022/01/16 05:34:25;;;;;;;0.00;0.00;;;;;;;2.55;91.50;102338.63;5038469;28;20064;-70
2022/01/16 05:36:51;;;;;;;0.10;0.10;;;;;;;2.75;91.60;102340.31;5038764;28;20025;-71
2022/01/16 05:39:16;;;;;;;0.00;0.00;;;;;;;2.97;91.49;102344.72;5039127;28;20303;-70
2022/01/16 05:41:41;;;;;;;0.00;0.00;;;;;;;3.13;90.62;102341.72;5038958;28;20021;-71
2022/01/16 05:44:07;;;;;;;0.00;0.00;;;;;;;3.25;90.54;102338.34;5038536;28;20033;-70
2022/01/16 05:46:32;;;;;;;0.10;0.10;;;;;;;3.43;88.80;102339.84;5038196;28;20030;-71
2022/01/16 05:48:57;;;;;;;0.10;0.10;;;;;;;3.69;85.41;102338.44;5049935;28;20039;-71
2022/01/16 05:51:23;;;;;;;0.10;0.10;;;;;;;3.98;82.96;102350.25;5059257;28;20029;-71
2022/01/16 05:53:51;;;;;;;0.30;0.30;;;;;;;4.18;81.39;102362.97;5058751;28;20032;-72
2022/01/16 05:56:16;;;;;;;0.23;0.23;;;;;;;4.36;78.73;102350.56;5058809;28;20112;-72
2022/01/16 05:58:41;;;;;;;0.30;0.30;;;;;;;4.39;77.13;102354.28;5057778;28;20056;-69
2022/01/16 06:01:07;;;;;;;0.30;0.30;;;;;;;4.50;75.46;102357.69;5058753;28;20079;-71
2022/01/16 06:03:32;;;;;;;0.40;0.40;;;;;;;4.53;74.59;102352.75;5040913;28;20269;-71
2022/01/16 06:05:58;;;;;;;0.23;0.23;;;;;;;4.55;74.88;102347.69;5056770;28;20440;-70
2022/01/16 06:08:23;;;;;;;0.53;0.53;;;;;;;4.49;75.70;102340.31;5058736;28;20029;-71
2022/01/16 06:10:49;;;;;;;0.40;0.40;;;;;;;4.42;76.17;102343.22;5058319;28;20068;-72
2022/01/16 06:13:14;;;;;;;0.50;0.50;;;;;;;4.39;74.32;102343.91;5058587;28;20045;-70
2022/01/16 06:15:40;;;;;;;0.40;0.40;;;;;;;4.47;73.34;102347.09;5057571;28;20063;-69
2022/01/16 06:18:06;;;;;;;0.60;0.60;;;;;;;4.54;71.37;102351.97;5057057;28;20115;-70
2022/01/16 06:20:32;;;;;;;0.50;0.50;;;;;;;4.68;71.41;102353.03;5057722;28;20413;-70
2022/01/16 06:22:58;;;;;;;0.70;0.70;;;;;;;4.78;72.22;102351.13;5058106;28;20021;-69
2022/01/16 06:25:24;;;;;;;0.60;0.60;;;;;;;4.84;71.23;102367.19;5057637;28;20039;-71
2022/01/16 06:27:50;;;;;;;0.60;0.60;;;;;;;4.82;71.69;102358.38;5057118;28;20040;-69
2022/01/16 06:30:15;;;;;;;0.30;0.30;;;;;;;4.77;73.08;102359.72;5058663;28;20032;-70
2022/01/16 06:32:41;;;;;;;0.43;0.43;;;;;;;4.72;72.38;102366.25;5057667;28;20020;-69
2022/01/16 06:35:08;;;;;;;0.50;0.50;;;;;;;4.75;72.43;102361.28;5044712;28;20155;-69
2022/01/16 06:37:37;;;;;;;0.27;0.27;;;;;;;4.73;73.32;102366.34;5036514;28;20346;-72
2022/01/16 06:40:03;;;;;;;0.60;0.60;;;;;;;4.69;74.37;102374.72;5038070;28;20079;-70
2022/01/16 06:42:29;;;;;;;0.40;0.40;;;;;;;4.63;75.39;102374.22;5036727;28;20109;-70
2022/01/16 06:44:54;;;;;;;0.40;0.40;;;;;;;4.60;74.83;102374.88;5038132;28;20127;-70
2022/01/16 06:47:19;;;;;;;0.40;0.40;;;;;;;4.60;74.79;102381.78;5037422;28;20064;-70
2022/01/16 06:49:45;;;;;;;0.50;0.50;;;;;;;4.64;75.59;102379.53;5037886;28;20037;-71
2022/01/16 06:52:10;;;;;;;0.50;0.50;;;;;;;4.64;75.00;102384.75;5057469;28;20021;-71
2022/01/16 06:54:36;;;;;;;0.60;0.60;;;;;;;4.60;75.28;102387.88;5056106;28;20032;-71
2022/01/16 06:57:01;;;;;;;0.47;0.47;;;;;;;4.61;75.06;102400.03;5056696;28;20043;-70
2022/01/16 06:59:26;;;;;;;0.40;0.40;;;;;;;4.70;73.88;102398.94;5057099;28;20033;-71
2022/01/16 07:01:52;;;;;;;0.50;0.50;;;;;;;4.72;74.57;102402.59;5056731;28;20035;-70
2022/01/16 07:04:17;;;;;;;0.50;0.50;;;;;;;4.72;74.96;102407.78;5057395;28;20064;-70
2022/01/16 07:06:42;;;;;;;0.87;0.87;;;;;;;4.70;75.19;102405.06;5032482;28;20029;-69
2022/01/16 07:09:08;;;;;;;0.33;0.33;;;;;;;4.68;75.01;102404.94;5041585;28;20028;-69
2022/01/16 07:11:33;;;;;;;0.30;0.30;;;;;;;4.70;74.98;102409.31;5056917;28;20647;-69
2022/01/16 07:14:01;;;;;;;0.50;0.50;;;;;;;4.67;75.23;102418.69;5057511;28;20032;-70
2022/01/16 07:16:26;;;;;;;0.50;0.50;;;;;;;4.74;73.57;102419.19;5056652;28;20040;-70
2022/01/16 07:18:51;;;;;;;0.50;0.50;;;;;;;4.77;74.18;102422.91;5057455;28;20111;-70
2022/01/16 07:21:17;;;;;;;0.50;0.50;;;;;;;4.79;74.18;102438.59;5056359;28;20376;-70
2022/01/16 07:23:45;;;;;;;0.47;0.47;;;;;;;4.78;74.77;102439.38;5046032;28;20410;-70
2022/01/16 07:26:11;;;;;;;0.50;0.50;;;;;;;4.76;75.10;102444.47;5036636;28;20319;-71
2022/01/16 07:28:36;;;;;;;0.50;0.50;;;;;;;4.82;75.45;102439.72;5036349;28;20038;-70
2022/01/16 07:31:02;;;;;;;0.50;0.50;;;;;;;4.86;75.85;102463.34;5036265;28;20403;-69
2022/01/16 07:33:28;;;;;;;0.30;0.30;;;;;;;4.89;76.20;102450.59;5037071;28;20084;-71
2022/01/16 07:35:53;;;;;;;0.50;0.50;;;;;;;4.90;75.96;102445.53;5036905;28;20372;-71
2022/01/16 07:38:43;;;;;;;0.50;0.50;;;;;;;4.94;76.47;102459.66;5037703;28;20388;-71
2022/01/16 07:41:08;;;;;;;0.40;0.40;;;;;;;4.99;77.02;102467.81;5045341;28;20087;-70
2022/01/16 07:43:34;;;;;;;0.40;0.40;;;;;;;5.01;77.28;102464.53;5042368;28;20344;-71
2022/01/16 07:46:04;;;;;;;0.43;0.43;;;;;;;5.06;77.23;102459.69;5045603;28;20065;-69
2022/01/16 07:48:29;;;;;;;0.30;0.30;;;;;;;5.08;77.93;102463.31;5048265;28;20162;-72
2022/01/16 07:50:55;;;;;;;0.50;0.50;;;;;;;5.04;78.71;102463.88;5048127;28;20124;-71
2022/01/16 07:54:22;;;;;;;0.47;0.47;;;;;;;5.00;78.97;102470.53;5044771;28;20041;-71
2022/01/16 07:56:41;;;;;;;0.40;0.40;;;;;;;5.04;79.52;102480.34;5045369;28;20120;-70
2022/01/16 07:59:06;;;;;;;0.50;0.50;;;;;;;5.07;79.68;102488.41;5048925;28;20057;-70
2022/01/16 08:01:32;;;;;;;0.40;0.40;;;;;;;5.10;79.82;102492.88;5052734;28;20043;-70
2022/01/16 08:03:57;;;;;;;0.30;0.30;;;;;;;5.18;79.89;102485.72;5050294;28;20068;-69
2022/01/16 08:06:22;;;;;;;0.33;0.33;;;;;;;5.22;79.78;102487.75;5039548;28;20067;-72
2022/01/16 08:08:48;;;;;;;0.37;0.37;;;;;;;5.25;80.08;102487.06;5055991;28;20040;-68
2022/01/16 08:11:14;;;;;;;0.50;0.50;;;;;;;5.27;80.20;102485.50;5059781;28;20029;-70
2022/01/16 08:13:40;;;;;;;0.40;0.40;;;;;;;5.25;80.34;102489.66;5048564;28;20039;-69
2022/01/16 08:16:07;;;;;;;0.50;0.50;;;;;;;5.25;80.70;102482.78;5041026;28;20033;-70
2022/01/16 08:18:33;;;;;;;0.40;0.40;;;;;;;5.22;80.86;102479.94;5050880;28;20037;-71
2022/01/16 08:20:59;;;;;;;0.50;0.50;;;;;;;5.22;80.99;102480.88;5042196;28;20021;-69
2022/01/16 08:23:24;;;;;;;0.40;0.40;;;;;;;5.30;80.60;102472.75;5054677;28;20051;-70
2022/01/16 08:25:51;;;;;;;0.40;0.40;;;;;;;5.29;80.67;102470.94;5052007;28;20044;-70
2022/01/16 08:28:17;;;;;;;0.40;0.40;;;;;;;5.26;81.20;102468.09;5040150;28;20040;-70
2022/01/16 08:30:42;;;;;;;0.30;0.30;;;;;;;5.25;80.92;102464.63;5043055;28;20016;-70
2022/01/16 08:33:08;;;;;;;0.40;0.40;;;;;;;5.25;81.05;102467.22;5040801;28;20388;-70
2022/01/16 08:35:34;;;;;;;0.20;0.20;;;;;;;5.25;81.17;102461.09;5060179;28;20398;-70
2022/01/16 08:37:59;;;;;;;0.30;0.30;;;;;;;5.35;80.66;102458.41;5048471;28;20037;-71
2022/01/16 08:40:24;;;;;;;0.40;0.40;;;;;;;5.44;80.15;102471.19;5046701;28;20040;-69
2022/01/16 08:42:50;;;;;;;0.37;0.37;;;;;;;5.43;80.39;102472.00;5039398;28;20025;-69
2022/01/16 08:45:16;;;;;;;0.40;0.40;;;;;;;5.37;80.40;102477.63;5040587;28;20033;-71
2022/01/16 08:47:41;;;;;;;0.30;0.30;;;;;;;5.36;80.41;102483.63;5022242;28;20163;-71
2022/01/16 08:50:08;;;;;;;0.80;0.80;;;;;;;5.23;80.81;102486.94;5022817;28;20057;-72
2022/01/16 08:52:34;;;;;;;0.40;0.40;;;;;;;5.15;81.16;102486.38;5039758;28;20128;-71
2022/01/16 08:55:01;;;;;;;0.50;0.50;;;;;;;5.05;81.91;102496.84;5040338;28;20376;-72
2022/01/16 08:57:26;;;;;;;0.40;0.40;;;;;;;4.97;82.27;102504.03;5039556;28;20064;-72
2022/01/16 08:59:52;;;;;;;0.30;0.30;;;;;;;4.94;82.54;102509.88;5053575;28;20063;-70
2022/01/16 09:02:17;;;;;;;0.37;0.37;;;;;;;4.91;82.96;102508.72;5059093;28;20112;-70
2022/01/16 09:04:42;;;;;;;0.60;0.60;;;;;;;4.89;82.82;102512.91;5049699;28;20059;-70
2022/01/16 09:07:08;;;;;;;1.23;1.13;;;;;;;4.82;83.13;102517.59;5058954;28;20094;-70
2022/01/16 09:09:33;;;;;;;0.40;0.40;;;;;;;4.81;83.60;102520.09;5055199;28;20029;-71
2022/01/16 09:11:59;;;;;;;0.30;0.30;;;;;;;4.79;83.79;102514.78;5051585;28;20025;-70
2022/01/16 09:14:25;;;;;;;0.30;0.30;;;;;;;4.81;83.17;102510.59;5050671;28;20381;-70
2022/01/16 09:16:50;;;;;;;0.40;0.40;;;;;;;4.77;83.88;102520.63;5046262;28;20036;-72
2022/01/16 09:19:16;;;;;;;0.27;0.27;;;;;;;4.76;83.86;102527.53;5048168;28;20037;-70
2022/01/16 09:21:41;;;;;;;0.40;0.40;;;;;;;4.74;84.03;102528.19;5058454;28;20403;-71
2022/01/16 09:24:07;;;;;;;0.30;0.30;;;;;;;4.74;84.11;102523.88;5060022;28;20029;-72
2022/01/16 09:26:32;;;;;;;0.30;0.30;;;;;;;4.69;84.21;102535.59;5058973;28;20032;-70
2022/01/16 09:28:58;;;;;;;0.53;0.53;;;;;;;4.64;84.59;102542.09;5058516;28;20036;-70
2022/01/16 09:31:23;;;;;;;0.37;0.37;;;;;;;4.62;84.63;102536.78;5058821;28;20057;-72
2022/01/16 09:33:49;;;;;;;0.30;0.30;;;;;;;4.62;84.88;102541.97;5057738;28;20051;-71
2022/01/16 09:36:14;;;;;;;0.67;0.60;;;;;;;4.61;85.09;102547.97;5040507;28;20075;-71
2022/01/16 09:38:40;;;;;;;0.30;0.30;;;;;;;4.62;84.84;102551.47;5039607;28;20084;-70
2022/01/16 09:41:06;;;;;;;0.40;0.40;;;;;;;4.62;84.92;102552.34;5038019;28;20040;-73
2022/01/16 09:43:32;;;;;;;0.30;0.30;;;;;;;4.57;85.03;102553.69;5038380;28;20120;-71
2022/01/16 09:45:58;;;;;;;0.30;0.30;;;;;;;4.55;85.33;102555.28;5049049;28;20078;-71
2022/01/16 09:48:24;;;;;;;0.20;0.20;;;;;;;4.59;85.29;102554.72;5044012;28;20029;-72
2022/01/16 09:50:49;;;;;;;0.63;0.63;;;;;;;4.62;84.91;102552.34;5042771;28;20032;-71
2022/01/16 09:53:16;;;;;;;0.30;0.30;;;;;;;4.57;84.95;102558.88;5038331;28;20120;-71
2022/01/16 09:55:41;;;;;;;0.17;0.17;;;;;;;4.56;85.07;102563.94;5038308;28;20063;-70
2022/01/16 09:58:06;;;;;;;0.53;0.53;;;;;;;4.57;85.16;102569.28;5046590;28;20056;-71
2022/01/16 10:00:32;;;;;;;0.43;0.43;;;;;;;4.53;84.99;102568.13;5058471;28;20033;-71
2022/01/16 10:02:57;;;;;;;0.30;0.30;;;;;;;4.52;85.20;102579.28;5057721;28;20021;-70
2022/01/16 10:05:35;;;;;;;0.20;0.20;;;;;;;4.53;85.22;102577.56;5046949;28;20056;-72
2022/01/16 10:08:03;;;;;;;0.30;0.30;;;;;;;4.50;85.25;102577.34;5046592;28;20033;-70
2022/01/16 10:10:34;;;;;;;0.40;0.40;;;;;;;4.52;85.05;102576.69;5037434;28;20071;-71
2022/01/16 10:13:07;;;;;;;0.40;0.40;;;;;;;4.48;85.39;102581.50;5054071;28;20062;-71
2022/01/16 10:15:33;;;;;;;0.20;0.20;;;;;;;4.45;85.38;102584.75;5037284;28;20123;-71
2022/01/16 10:18:00;;;;;;;0.30;0.30;;;;;;;4.48;85.38;102582.38;5058280;28;20365;-71
2022/01/16 10:20:27;;;;;;;0.30;0.30;;;;;;;4.44;85.48;102595.91;5052739;28;20079;-70
2022/01/16 10:22:58;;;;;;;0.60;0.60;;;;;;;4.40;85.87;102586.97;5038209;28;20025;-70
2022/01/16 10:25:41;;;;;;;0.20;0.20;;;;;;;4.46;85.28;102590.81;5054036;28;20143;-71
2022/01/16 10:28:22;;;;;;;0.30;0.30;;;;;;;4.42;85.57;102600.03;5042137;28;20072;-71
2022/01/16 10:30:56;;;;;;;0.27;0.27;;;;;;;4.40;85.52;102601.63;5057302;28;20029;-71
2022/01/16 10:33:28;;;;;;;0.10;0.10;;;;;;;4.44;85.93;102603.69;5057993;28;20384;-77
2022/01/16 10:35:55;;;;;;;0.30;0.30;;;;;;;4.46;85.87;102596.94;5040539;28;20028;-72
2022/01/16 10:38:28;;;;;;;0.10;0.10;;;;;;;4.46;86.20;102599.53;5049980;28;20315;-69
2022/01/16 10:40:56;;;;;;;0.57;0.57;;;;;;;4.51;86.09;102605.09;5045786;28;20037;-71
2022/01/16 10:43:40;;;;;;;0.20;0.20;;;;;;;4.58;86.15;102598.69;5057841;28;20042;-71
2022/01/16 10:46:06;;;;;;;0.20;0.20;;;;;;;4.56;86.15;102593.41;5039785;28;20033;-70
2022/01/16 10:48:35;;;;;;;0.13;0.13;;;;;;;4.61;86.14;102586.00;5037468;28;20025;-71
2022/01/16 10:51:01;;;;;;;0.30;0.30;;;;;;;4.66;86.45;102587.25;5048495;28;20045;-66
2022/01/16 10:53:28;;;;;;;1.03;0.87;;;;;;;4.71;86.22;102590.22;5046385;28;20033;-71
2022/01/16 10:56:02;;;;;;;0.20;0.20;;;;;;;4.78;86.17;102587.31;5061189;28;20033;-71
2022/01/16 10:58:35;;;;;;;0.20;0.20;;;;;;;4.85;85.48;102586.16;5075758;28;20020;-71
2022/01/16 11:01:03;;;;;;;0.20;0.20;;;;;;;4.90;85.89;102590.91;5056859;28;20089;-70
2022/01/16 11:03:53;;;;;;;0.10;0.10;;;;;;;4.96;85.95;102585.31;5047433;28;20072;-69
2022/01/16 11:06:23;;;;;;;0.20;0.20;;;;;;;4.99;85.89;102582.03;5049758;28;20334;-71
2022/01/16 11:08:56;;;;;;;0.20;0.20;;;;;;;5.07;85.40;102578.34;5044141;28;20383;-71
2022/01/16 11:11:22;;;;;;;0.27;0.27;;;;;;;5.14;85.75;102582.34;5042172;28;20280;-70
2022/01/16 11:13:47;;;;;;;0.30;0.30;;;;;;;5.16;85.75;102594.66;5035693;28;20136;-70
2022/01/16 11:16:13;;;;;;;0.20;0.20;;;;;;;5.19;85.47;102589.72;5041441;28;20028;-72
2022/01/16 11:18:40;;;;;;;0.30;0.30;;;;;;;5.20;85.05;102596.72;5046988;28;20021;-70
2022/01/16 11:21:18;;;;;;;0.30;0.30;;;;;;;5.21;85.27;102588.16;5041284;28;20029;-71
2022/01/16 11:26:23;;;;;;;0.30;0.30;;;;;;;5.36;85.16;102608.31;5053113;28;20064;-70
2022/01/16 11:28:56;;;;;;;0.20;0.20;;;;;;;5.46;84.71;102596.94;5047337;28;20036;-71
2022/01/16 11:31:22;;;;;;;0.20;0.20;;;;;;;5.59;84.50;102602.28;5041072;28;20119;-70
2022/01/16 11:33:47;;;;;;;0.20;0.20;;;;;;;5.74;84.50;102599.94;5036206;28;20120;-71
2022/01/16 11:36:15;;;;;;;0.37;0.37;;;;;;;5.85;83.24;102586.88;5046487;28;20024;-72
2022/01/16 11:38:49;;;;;;;0.30;0.30;;;;;;;5.88;82.77;102587.09;5051618;28;20057;-71
2022/01/16 11:41:20;;;;;;;0.30;0.30;;;;;;;5.90;82.54;102590.72;5052384;28;20445;-71
2022/01/16 11:43:53;;;;;;;0.30;0.30;;;;;;;5.94;82.67;102574.56;5037116;28;20042;-72
2022/01/16 11:46:24;;;;;;;0.67;0.67;;;;;;;5.97;81.72;102587.78;5040217;28;20425;-72
2022/01/16 11:48:55;;;;;;;0.30;0.30;;;;;;;5.99;82.21;102578.41;5048848;28;20026;-72
2022/01/16 11:51:35;;;;;;;0.53;0.53;;;;;;;6.03;81.58;102582.19;5038255;28;20434;-69
2022/01/16 11:54:01;;;;;;;0.60;0.60;;;;;;;6.03;81.26;102579.56;5044352;28;20041;-71
2022/01/16 11:56:41;;;;;;;0.27;0.27;;;;;;;6.13;80.31;102589.91;5041014;28;20041;-70
2022/01/16 11:59:24;;;;;;;0.40;0.40;;;;;;;6.15;80.17;102582.19;5037186;28;20040;-73
2022/01/16 12:02:08;;;;;;;0.47;0.47;;;;;;;6.16;79.94;102576.22;5037273;28;20048;-70
2022/01/16 12:04:33;;;;;;;0.40;0.40;;;;;;;6.19;79.65;102589.44;5052381;28;20042;-70
2022/01/16 12:06:58;;;;;;;0.40;0.40;;;;;;;6.22;79.49;102592.25;5050257;28;20021;-72
2022/01/16 12:09:37;;;;;;;0.50;0.50;;;;;;;6.24;79.04;102598.50;5051736;28;20033;-72
2022/01/16 12:12:04;;;;;;;0.50;0.50;;;;;;;6.28;79.46;102591.81;5046682;28;20051;-72
2022/01/16 12:14:57;;;;;;;0.40;0.40;;;;;;;6.27;78.82;102587.41;5041302;28;20037;-70
2022/01/16 12:17:26;;;;;;;0.50;0.50;;;;;;;6.34;79.00;102584.47;5044557;28;20159;-70
2022/01/16 12:19:53;;;;;;;0.87;0.87;;;;;;;6.34;79.44;102587.06;5055069;28;20024;-71
2022/01/16 12:22:40;;;;;;;0.40;0.40;;;;;;;6.30;79.62;102585.94;5040902;28;20071;-72